Terminal Aerodrome Forecast
Issued by NWS

Home | Current Version | Previous Version | Text Only | Print | Product List | Glossary Off
Versions: 1 2 3 4 5 6 7 8 9 10 11 12 13 14 15 16 17 18 19

669
FTUS43 KICT 231345 AAA
TAFHUT
TAF AMD
KHUT 231345Z 2314/2412 18017G22KT P6SM OVC015
     FM231500 18017G22KT P6SM SCT020 BKN040
     FM231800 18022G30KT P6SM SCT030
     FM240100 18017G22KT P6SM SKC
     FM240900 18013KT P6SM SKC=

USA.gov is the U.S. government's official web portal to all federal, state and local government web resources and services.